createdAt,value
2019-03-06T00:00:27.411Z,87.25
2019-03-06T00:03:05.345Z,90.95
2019-03-06T00:05:42.332Z,89.37
2019-03-06T00:08:19.009Z,92.30
2019-03-06T00:10:55.872Z,80.17
2019-03-06T00:13:32.651Z,93.03
2019-03-06T00:16:09.891Z,88.85
2019-03-06T00:18:46.954Z,85.53
2019-03-06T00:21:23.451Z,93.25
2019-03-06T00:24:00.470Z,88.33
2019-03-06T00:26:38.285Z,81.57
2019-03-06T00:29:15.249Z,84.25
2019-03-06T00:31:51.840Z,81.65
2019-03-06T00:34:28.757Z,83.27
2019-03-06T00:37:05.488Z,85.07
2019-03-06T00:39:49.320Z,85.05
2019-03-06T00:42:25.581Z,87.75
2019-03-06T00:45:02.782Z,88.92
2019-03-06T00:47:39.684Z,89.50
2019-03-06T00:50:16.292Z,92.35
2019-03-06T00:52:52.914Z,87.85
2019-03-06T00:55:29.579Z,90.65
2019-03-06T00:58:06.338Z,89.58
2019-03-06T01:00:42.788Z,83.72
2019-03-06T01:03:19.941Z,82.20
2019-03-06T01:05:56.764Z,79.77
2019-03-06T01:08:33.623Z,79.82
2019-03-06T01:11:10.523Z,79.35
2019-03-06T01:13:47.268Z,80.32
2019-03-06T01:16:24.171Z,86.15
2019-03-06T01:19:01.933Z,80.07
2019-03-06T01:21:39.399Z,72.72
2019-03-06T01:24:16.280Z,68.22
2019-03-06T01:26:54.039Z,67.90
2019-03-06T01:29:30.940Z,71.12
2019-03-06T01:32:07.990Z,60.33
2019-03-06T01:34:59.590Z,62.27
2019-03-06T01:37:47.487Z,65.57
2019-03-06T01:40:33.196Z,69.07
2019-03-06T01:43:20.170Z,58.30
2019-03-06T01:45:56.761Z,56.63
2019-03-06T01:48:33.589Z,57.65
2019-03-06T01:51:11.757Z,56.88
2019-03-06T01:53:48.995Z,60.80
2019-03-06T01:56:25.692Z,54.95
2019-03-06T01:59:02.411Z,62.40
2019-03-06T02:01:42.225Z,60.28
2019-03-06T02:04:19.045Z,59.58
2019-03-06T02:06:56.488Z,60.10
2019-03-06T02:09:34.525Z,67.53
2019-03-06T02:12:12.328Z,69.85
2019-03-06T02:14:49.335Z,66.15
2019-03-06T02:17:26.337Z,71.85
2019-03-06T02:20:03.107Z,65.85
2019-03-06T02:22:39.967Z,65.50
2019-03-06T02:25:16.921Z,66.77
2019-03-06T02:27:53.884Z,64.82
2019-03-06T02:30:30.817Z,63.95
2019-03-06T02:33:08.154Z,63.60
2019-03-06T02:35:44.828Z,61.37
2019-03-06T02:38:21.740Z,59.85
2019-03-06T02:40:58.312Z,60.80
2019-03-06T02:43:34.756Z,61.95
2019-03-06T02:46:12.166Z,66.30
2019-03-06T02:48:49.099Z,59.98
2019-03-06T02:51:26.206Z,60.55
2019-03-06T02:54:03.944Z,54.67
2019-03-06T02:56:40.812Z,57.23
2019-03-06T02:59:38.083Z,57.88
2019-03-06T03:02:45.679Z,55.15
2019-03-06T03:05:28.716Z,47.00
2019-03-06T03:08:05.648Z,53.35
2019-03-06T03:10:43.445Z,50.17
2019-03-06T03:13:22.002Z,47.90
2019-03-06T03:15:59.541Z,48.75
2019-03-06T03:18:37.256Z,48.15
2019-03-06T03:21:14.122Z,50.10
2019-03-06T03:23:50.535Z,53.75
2019-03-06T03:26:27.166Z,54.58
2019-03-06T03:29:04.280Z,54.88
2019-03-06T03:31:41.093Z,50.78
2019-03-06T03:34:17.788Z,46.40
2019-03-06T03:36:54.681Z,56.00
2019-03-06T03:39:37.293Z,44.53
2019-03-06T03:42:19.654Z,46.83
2019-03-06T03:44:57.871Z,46.75
2019-03-06T03:47:36.098Z,40.58
2019-03-06T03:50:13.276Z,50.25
2019-03-06T03:52:50.436Z,48.02
2019-03-06T03:55:29.520Z,49.25
2019-03-06T03:58:07.730Z,45.25
2019-03-06T04:00:45.254Z,47.35
2019-03-06T04:03:22.008Z,46.90
2019-03-06T04:05:58.236Z,49.20
2019-03-06T04:08:35.333Z,44.08
2019-03-06T04:11:11.897Z,47.80
2019-03-06T04:13:49.480Z,52.17
2019-03-06T04:16:25.832Z,51.63
2019-03-06T04:19:02.734Z,45.95
2019-03-06T04:21:39.803Z,46.98
2019-03-06T04:24:17.832Z,48.30
2019-03-06T04:26:54.724Z,53.35
2019-03-06T04:29:32.102Z,43.92
2019-03-06T04:32:09.088Z,50.40
2019-03-06T04:34:46.239Z,52.17
2019-03-06T04:37:22.861Z,49.03
2019-03-06T04:39:59.768Z,45.98
2019-03-06T04:42:37.069Z,47.75
2019-03-06T04:45:17.675Z,48.60
2019-03-06T04:47:54.473Z,45.98
2019-03-06T04:50:31.763Z,47.03
2019-03-06T04:53:08.708Z,47.45
2019-03-06T04:55:46.607Z,46.77
2019-03-06T04:58:23.167Z,52.73
2019-03-06T05:01:00.041Z,45.45
2019-03-06T05:03:36.818Z,50.08
2019-03-06T05:06:13.892Z,47.62
2019-03-06T05:08:51.009Z,51.37
2019-03-06T05:11:27.559Z,48.80
2019-03-06T05:14:04.519Z,54.42
2019-03-06T05:16:53.056Z,51.20
2019-03-06T05:19:30.059Z,45.90
2019-03-06T05:22:07.059Z,47.00
2019-03-06T05:24:44.348Z,49.60
2019-03-06T05:27:20.856Z,47.50
2019-03-06T05:29:57.791Z,50.65
2019-03-06T05:32:39.423Z,49.33
2019-03-06T05:35:23.054Z,43.30
2019-03-06T05:38:08.910Z,50.08
2019-03-06T05:40:45.713Z,51.77
2019-03-06T05:43:25.347Z,44.65
2019-03-06T05:46:02.232Z,49.30
2019-03-06T05:48:39.697Z,46.00
2019-03-06T05:51:16.344Z,40.67
2019-03-06T05:53:53.403Z,48.33
2019-03-06T05:56:30.471Z,45.23
2019-03-06T05:59:07.205Z,43.10
2019-03-06T06:01:44.520Z,44.98
2019-03-06T06:04:21.211Z,41.83
2019-03-06T06:06:58.154Z,41.45
2019-03-06T06:09:35.490Z,40.63
2019-03-06T06:12:12.616Z,42.80
2019-03-06T06:14:49.679Z,40.95
2019-03-06T06:17:26.910Z,42.08
2019-03-06T06:20:03.570Z,44.00
2019-03-06T06:22:58.522Z,49.67
2019-03-06T06:25:36.502Z,43.52
2019-03-06T06:28:13.121Z,42.83
2019-03-06T06:30:50.181Z,42.48
2019-03-06T06:33:28.234Z,39.78
2019-03-06T06:36:05.026Z,42.65
2019-03-06T06:38:42.152Z,43.10
2019-03-06T06:41:21.512Z,41.40
2019-03-06T06:44:03.065Z,40.88
2019-03-06T06:46:39.754Z,43.23
2019-03-06T06:49:17.715Z,41.65
2019-03-06T06:52:21.358Z,42.23
2019-03-06T06:55:14.628Z,39.88
2019-03-06T06:58:32.974Z,40.43
2019-03-06T07:02:04.986Z,41.40
2019-03-06T07:05:18.026Z,39.85
2019-03-06T07:08:13.082Z,41.75
2019-03-06T07:10:59.599Z,41.65
2019-03-06T07:13:47.524Z,36.88
2019-03-06T07:16:48.662Z,36.42
2019-03-06T07:19:40.024Z,35.28
2019-03-06T07:23:03.042Z,33.75
2019-03-06T07:25:46.756Z,35.63
2019-03-06T07:28:30.175Z,36.13
2019-03-06T07:31:28.351Z,38.53
2019-03-06T07:34:37.710Z,34.65
2019-03-06T07:37:28.163Z,36.83
2019-03-06T07:40:19.248Z,40.83
2019-03-06T07:43:11.724Z,43.48
2019-03-06T07:46:16.272Z,42.67
2019-03-06T07:49:10.620Z,43.90
2019-03-06T07:52:05.823Z,47.38
2019-03-06T07:54:59.400Z,50.35
2019-03-06T07:57:45.885Z,49.70
2019-03-06T08:00:25.081Z,48.78
2019-03-06T08:03:22.243Z,46.50
2019-03-06T08:05:59.022Z,49.75
2019-03-06T08:08:36.264Z,52.60
2019-03-06T08:11:20.273Z,47.85
2019-03-06T08:14:05.894Z,44.50
2019-03-06T08:16:59.343Z,50.43
2019-03-06T08:20:00.302Z,45.33
2019-03-06T08:22:56.402Z,42.45
2019-03-06T08:26:00.563Z,42.08
2019-03-06T08:28:38.674Z,42.53
2019-03-06T08:31:43.375Z,48.33
2019-03-06T08:34:20.561Z,44.08
2019-03-06T08:36:58.500Z,41.63
2019-03-06T08:39:35.378Z,39.88
2019-03-06T08:42:12.287Z,41.45
2019-03-06T08:44:50.250Z,43.65
2019-03-06T08:47:43.385Z,44.40
2019-03-06T08:50:40.953Z,39.65
2019-03-06T08:53:35.523Z,39.40
2019-03-06T08:56:21.722Z,39.45
2019-03-06T08:59:18.600Z,40.95
2019-03-06T09:02:16.955Z,42.88
2019-03-06T09:05:13.093Z,40.00
2019-03-06T09:08:23.483Z,42.62
2019-03-06T09:11:14.882Z,40.92
2019-03-06T09:13:59.079Z,41.37
2019-03-06T09:16:57.114Z,42.73
2019-03-06T09:19:43.339Z,41.13
2019-03-06T09:22:30.813Z,43.10
2019-03-06T09:25:31.281Z,40.95
2019-03-06T09:28:14.168Z,41.77
2019-03-06T09:31:04.675Z,43.40
2019-03-06T09:33:59.599Z,39.42
2019-03-06T09:37:03.711Z,38.13
2019-03-06T09:40:06.118Z,44.95
2019-03-06T09:43:03.621Z,41.88
2019-03-06T09:45:56.426Z,41.92
2019-03-06T09:48:59.590Z,37.08
2019-03-06T09:51:44.682Z,36.70
2019-03-06T09:54:39.313Z,38.45
2019-03-06T09:57:43.688Z,37.78
2019-03-06T10:00:41.460Z,38.00
2019-03-06T10:03:49.936Z,40.50
2019-03-06T10:07:00.248Z,40.17
2019-03-06T10:10:07.229Z,35.85
2019-03-06T10:13:03.465Z,35.30
2019-03-06T10:15:55.338Z,38.17
2019-03-06T10:18:43.695Z,32.53
2019-03-06T10:21:21.162Z,36.60
2019-03-06T10:23:58.147Z,32.55
2019-03-06T10:26:34.911Z,33.00
2019-03-06T10:29:12.021Z,36.75
2019-03-06T10:31:48.763Z,34.80
2019-03-06T10:34:26.193Z,36.68
2019-03-06T10:37:03.068Z,36.65
2019-03-06T10:39:56.616Z,33.15
2019-03-06T10:42:34.625Z,35.00
2019-03-06T10:45:12.411Z,34.83
2019-03-06T10:47:49.333Z,36.33
2019-03-06T10:50:28.255Z,37.30
2019-03-06T10:53:05.283Z,36.55
2019-03-06T10:55:42.225Z,33.08
2019-03-06T10:58:18.897Z,37.28
2019-03-06T11:00:56.346Z,38.53
2019-03-06T11:03:54.629Z,39.98
2019-03-06T11:06:31.798Z,45.20
2019-03-06T11:09:10.725Z,47.75
2019-03-06T11:11:48.081Z,55.28
2019-03-06T11:14:26.579Z,52.00
2019-03-06T11:17:03.642Z,62.53
2019-03-06T11:19:41.249Z,57.78
2019-03-06T11:22:18.610Z,68.50
2019-03-06T11:24:56.646Z,125.25
2019-03-06T11:27:33.804Z,117.03
2019-03-06T11:30:13.918Z,105.17
2019-03-06T11:32:54.553Z,112.97
2019-03-06T11:35:29.942Z,97.92
2019-03-06T11:38:06.702Z,110.90
2019-03-06T11:40:44.456Z,101.07
2019-03-06T11:43:24.413Z,88.85
2019-03-06T11:46:02.774Z,56.30
2019-03-06T11:48:40.774Z,54.58
2019-03-06T11:51:17.595Z,56.60
2019-03-06T11:53:54.970Z,78.60
2019-03-06T11:56:32.454Z,64.35
2019-03-06T11:59:10.641Z,61.45
2019-03-06T12:01:48.579Z,75.32
2019-03-06T12:04:25.617Z,56.15
2019-03-06T12:07:02.504Z,62.45
2019-03-06T12:09:40.562Z,64.25
2019-03-06T12:12:17.371Z,60.43
2019-03-06T12:14:53.904Z,60.15
2019-03-06T12:17:31.438Z,50.12
2019-03-06T12:20:08.977Z,51.48
2019-03-06T12:22:45.738Z,51.90
2019-03-06T12:25:22.719Z,54.38
2019-03-06T12:28:00.109Z,55.15
2019-03-06T12:30:37.253Z,51.33
2019-03-06T12:33:14.598Z,60.03
2019-03-06T12:35:51.664Z,48.52
2019-03-06T12:38:28.804Z,47.90
2019-03-06T12:41:05.852Z,49.25
2019-03-06T12:43:44.705Z,47.08
2019-03-06T12:46:27.172Z,56.88
2019-03-06T12:49:14.970Z,50.98
2019-03-06T12:51:54.471Z,45.55
2019-03-06T12:54:29.772Z,51.65
2019-03-06T12:57:06.228Z,45.65
2019-03-06T12:59:43.609Z,55.67
2019-03-06T13:02:20.728Z,52.80
2019-03-06T13:04:57.455Z,48.15
2019-03-06T13:07:34.391Z,49.60
2019-03-06T13:10:13.000Z,50.48
2019-03-06T13:12:49.543Z,51.58
2019-03-06T13:15:28.032Z,59.15
2019-03-06T13:18:05.448Z,47.75
2019-03-06T13:20:42.222Z,51.20
2019-03-06T13:23:19.771Z,51.55
2019-03-06T13:25:56.727Z,53.25
2019-03-06T13:28:33.269Z,60.88
2019-03-06T13:31:10.471Z,57.27
2019-03-06T13:34:08.418Z,63.87
2019-03-06T13:36:45.151Z,70.90
2019-03-06T13:39:22.188Z,62.80
2019-03-06T13:41:59.477Z,58.30
2019-03-06T13:44:36.227Z,62.50
2019-03-06T13:47:13.992Z,53.55
2019-03-06T13:49:50.966Z,56.13
2019-03-06T13:52:28.157Z,59.95
2019-03-06T13:55:05.135Z,58.02
2019-03-06T13:57:44.248Z,60.92
2019-03-06T14:00:20.528Z,57.58
2019-03-06T14:02:57.747Z,60.38
2019-03-06T14:05:34.499Z,59.25
2019-03-06T14:08:11.421Z,61.30
2019-03-06T14:10:47.761Z,60.98
2019-03-06T14:13:25.333Z,55.98
2019-03-06T14:16:02.587Z,59.67
2019-03-06T14:18:39.478Z,66.97
2019-03-06T14:21:16.117Z,63.92
2019-03-06T14:23:52.998Z,64.70
2019-03-06T14:26:30.827Z,62.58
2019-03-06T14:29:08.251Z,57.15
2019-03-06T14:31:46.203Z,54.67
2019-03-06T14:34:23.089Z,55.63
2019-03-06T14:37:00.179Z,61.08
2019-03-06T14:39:37.260Z,59.77
2019-03-06T14:42:14.825Z,85.95
2019-03-06T14:44:51.248Z,57.30
2019-03-06T14:47:29.241Z,62.65
2019-03-06T14:50:05.980Z,60.17
2019-03-06T14:52:42.984Z,57.58
2019-03-06T14:55:19.982Z,62.08
2019-03-06T14:57:56.602Z,54.48
2019-03-06T15:00:33.451Z,59.27
2019-03-06T15:03:10.225Z,62.80
2019-03-06T15:05:47.518Z,65.37
2019-03-06T15:08:24.943Z,67.27
2019-03-06T15:11:01.366Z,60.43
2019-03-06T15:13:38.663Z,66.42
2019-03-06T15:16:15.140Z,64.10
2019-03-06T15:18:51.775Z,60.23
2019-03-06T15:21:28.683Z,61.58
2019-03-06T15:24:05.989Z,69.90
2019-03-06T15:26:42.376Z,60.50
2019-03-06T15:29:20.271Z,66.02
2019-03-06T15:31:56.583Z,61.48
2019-03-06T15:34:33.931Z,65.52
2019-03-06T15:37:10.949Z,58.33
2019-03-06T15:39:48.439Z,66.77
2019-03-06T15:42:25.572Z,66.33
2019-03-06T15:45:02.709Z,69.03
2019-03-06T15:47:40.544Z,60.98
2019-03-06T15:50:18.556Z,63.98
2019-03-06T15:52:55.606Z,58.80
2019-03-06T15:55:32.811Z,62.78
2019-03-06T15:58:10.144Z,55.35
2019-03-06T16:00:47.049Z,62.33
2019-03-06T16:03:24.168Z,58.70
2019-03-06T16:06:01.728Z,74.77
2019-03-06T16:08:39.151Z,66.02
2019-03-06T16:11:15.788Z,63.48
2019-03-06T16:13:52.633Z,63.28
2019-03-06T16:16:29.576Z,57.58
2019-03-06T16:19:07.777Z,62.90
2019-03-06T16:21:45.105Z,59.05
2019-03-06T16:24:22.514Z,63.52
2019-03-06T16:26:59.127Z,55.43
2019-03-06T16:29:36.138Z,54.75
2019-03-06T16:32:12.817Z,64.27
2019-03-06T16:34:50.033Z,56.05
2019-03-06T16:37:26.791Z,59.45
2019-03-06T16:40:03.936Z,51.55
2019-03-06T16:42:40.833Z,50.00
2019-03-06T16:45:20.918Z,50.83
2019-03-06T16:47:58.225Z,51.73
2019-03-06T16:50:35.086Z,53.25
2019-03-06T16:53:11.958Z,54.03
2019-03-06T16:55:48.972Z,48.95
2019-03-06T16:58:25.631Z,47.05
2019-03-06T17:01:02.899Z,49.85
2019-03-06T17:03:39.744Z,49.25
2019-03-06T17:06:16.351Z,49.63
2019-03-06T17:08:53.478Z,46.77
2019-03-06T17:11:31.136Z,51.98
2019-03-06T17:14:08.133Z,43.40
2019-03-06T17:16:45.176Z,42.17
2019-03-06T17:19:21.902Z,45.12
2019-03-06T17:21:59.361Z,46.50
2019-03-06T17:24:36.435Z,45.48
2019-03-06T17:27:13.359Z,42.98
2019-03-06T17:29:50.175Z,45.78
2019-03-06T17:32:27.340Z,41.48
2019-03-06T17:35:04.333Z,39.05
2019-03-06T17:37:41.532Z,41.70
2019-03-06T17:40:18.458Z,43.08
2019-03-06T17:42:56.462Z,42.13
2019-03-06T17:45:33.106Z,44.40
2019-03-06T17:48:10.486Z,44.58
2019-03-06T17:50:48.153Z,36.48
2019-03-06T17:53:25.064Z,44.70
2019-03-06T17:56:01.780Z,43.25
2019-03-06T17:58:39.566Z,43.80
2019-03-06T18:01:20.371Z,46.23
2019-03-06T18:04:14.368Z,45.88
2019-03-06T18:06:50.879Z,41.85
2019-03-06T18:09:27.859Z,42.33
2019-03-06T18:12:05.152Z,35.70
2019-03-06T18:14:42.158Z,40.05
2019-03-06T18:17:18.799Z,42.55
2019-03-06T18:19:55.622Z,40.12
2019-03-06T18:22:32.749Z,43.65
2019-03-06T18:25:11.211Z,39.45
2019-03-06T18:27:48.071Z,42.30
2019-03-06T18:30:25.122Z,39.38
2019-03-06T18:33:01.909Z,40.55
2019-03-06T18:35:40.408Z,62.03
2019-03-06T18:38:16.859Z,39.80
2019-03-06T18:40:53.761Z,37.98
2019-03-06T18:43:30.935Z,41.98
2019-03-06T18:46:07.991Z,44.85
2019-03-06T18:48:44.501Z,43.95
2019-03-06T18:51:22.170Z,44.27
2019-03-06T18:53:58.669Z,42.40
2019-03-06T18:56:35.427Z,40.80
2019-03-06T18:59:12.486Z,47.70
2019-03-06T19:01:48.893Z,45.40
2019-03-06T19:04:26.201Z,45.15
2019-03-06T19:07:04.413Z,46.80
2019-03-06T19:09:41.461Z,45.90
2019-03-06T19:12:18.669Z,42.62
2019-03-06T19:14:55.684Z,49.63
2019-03-06T19:17:32.515Z,50.33
2019-03-06T19:20:09.540Z,44.40
2019-03-06T19:22:46.062Z,50.08
2019-03-06T19:25:23.870Z,44.98
2019-03-06T19:28:00.972Z,48.98
2019-03-06T19:30:37.580Z,46.77
2019-03-06T19:33:15.095Z,48.87
2019-03-06T19:35:52.246Z,44.33
2019-03-06T19:38:29.870Z,44.73
2019-03-06T19:41:06.876Z,45.83
2019-03-06T19:43:46.652Z,40.40
2019-03-06T19:46:23.391Z,45.52
2019-03-06T19:49:02.908Z,44.35
2019-03-06T19:51:40.099Z,40.25
2019-03-06T19:54:16.996Z,45.33
2019-03-06T19:56:54.984Z,55.45
2019-03-06T19:59:31.597Z,44.23
2019-03-06T20:02:08.284Z,42.53
2019-03-06T20:04:45.320Z,49.53
2019-03-06T20:07:22.054Z,52.53
2019-03-06T20:09:58.696Z,49.58
2019-03-06T20:12:35.937Z,53.10
2019-03-06T20:15:12.787Z,52.55
2019-03-06T20:17:57.148Z,51.92
2019-03-06T20:20:34.105Z,55.85
2019-03-06T20:23:11.440Z,54.08
2019-03-06T20:25:48.343Z,65.62
2019-03-06T20:28:25.182Z,57.93
2019-03-06T20:31:02.096Z,54.45
2019-03-06T20:33:39.717Z,54.53
2019-03-06T20:36:16.603Z,52.88
2019-03-06T20:38:54.141Z,57.48
2019-03-06T20:41:31.040Z,58.78
2019-03-06T20:44:08.071Z,52.45
2019-03-06T20:46:44.943Z,59.42
2019-03-06T20:49:21.538Z,60.45
2019-03-06T20:51:59.572Z,59.65
2019-03-06T20:54:37.699Z,61.20
2019-03-06T20:57:16.381Z,54.80
2019-03-06T20:59:53.755Z,52.08
2019-03-06T21:02:30.212Z,55.95
2019-03-06T21:05:07.262Z,61.95
2019-03-06T21:07:45.221Z,54.40
2019-03-06T21:10:22.659Z,57.95
2019-03-06T21:12:59.015Z,60.33
2019-03-06T21:15:36.296Z,60.55
2019-03-06T21:18:12.786Z,61.20
2019-03-06T21:20:49.903Z,57.40
2019-03-06T21:23:26.873Z,61.68
2019-03-06T21:26:03.378Z,61.70
2019-03-06T21:28:40.237Z,58.75
2019-03-06T21:31:17.425Z,67.32
2019-03-06T21:33:54.017Z,62.85
2019-03-06T21:36:30.833Z,64.67
2019-03-06T21:39:11.090Z,65.50
2019-03-06T21:41:48.603Z,65.45
2019-03-06T21:44:25.567Z,63.13
2019-03-06T21:47:02.495Z,66.57
2019-03-06T21:49:39.534Z,63.68
2019-03-06T21:52:16.978Z,60.45
2019-03-06T21:54:53.588Z,63.33
2019-03-06T21:57:30.809Z,64.85
2019-03-06T22:00:07.793Z,65.97
2019-03-06T22:02:45.057Z,67.70
2019-03-06T22:05:25.303Z,72.37
2019-03-06T22:08:02.160Z,68.42
2019-03-06T22:10:39.020Z,65.55
2019-03-06T22:13:15.766Z,68.28
2019-03-06T22:15:52.567Z,73.12
2019-03-06T22:18:30.848Z,70.70
2019-03-06T22:21:06.985Z,67.50
2019-03-06T22:23:44.402Z,69.82
2019-03-06T22:26:23.423Z,72.85
2019-03-06T22:29:00.363Z,66.07
2019-03-06T22:31:37.561Z,63.70
2019-03-06T22:34:14.056Z,71.35
2019-03-06T22:36:52.196Z,70.40
2019-03-06T22:39:29.688Z,71.35
2019-03-06T22:42:06.552Z,74.40
2019-03-06T22:44:43.715Z,76.82
2019-03-06T22:47:21.529Z,73.90
2019-03-06T22:49:58.980Z,75.47
2019-03-06T22:52:35.827Z,72.25
2019-03-06T22:55:14.209Z,73.92
2019-03-06T22:57:51.378Z,66.30
2019-03-06T23:00:51.520Z,74.00
2019-03-06T23:03:30.789Z,70.28
2019-03-06T23:06:07.965Z,67.20
2019-03-06T23:08:44.836Z,70.12
2019-03-06T23:11:22.193Z,74.60
2019-03-06T23:13:58.495Z,75.92
2019-03-06T23:16:35.804Z,75.35
2019-03-06T23:19:12.723Z,70.37
2019-03-06T23:21:49.493Z,74.40
2019-03-06T23:24:26.018Z,66.92
2019-03-06T23:27:03.248Z,71.02
2019-03-06T23:29:39.982Z,72.45
2019-03-06T23:32:17.082Z,74.75
2019-03-06T23:34:54.322Z,72.70
2019-03-06T23:37:31.457Z,82.92
2019-03-06T23:40:09.395Z,82.53
2019-03-06T23:42:48.146Z,86.08
2019-03-06T23:45:24.781Z,95.40
2019-03-06T23:48:02.733Z,97.47
2019-03-06T23:50:40.174Z,106.87
2019-03-06T23:53:17.895Z,106.17
2019-03-06T23:55:54.639Z,136.45
2019-03-06T23:58:31.984Z,110.88
